sensor_id;sensor_type;location;lat;lon;timestamp;pressure;altitude;pressure_sealevel;temperature;humidity
53868;BME280;41577;47.470;19.080;2023-12-20T00:00:09;100377.59;;;-2.25;100.00
53868;BME280;41577;47.470;19.080;2023-12-20T00:00:21;100374.13;;;-2.26;100.00
53868;BME280;41577;47.470;19.080;2023-12-20T00:00:33;100377.59;;;-2.25;100.00
53868;BME280;41577;47.470;19.080;2023-12-20T00:00:45;100366.41;;;-2.27;100.00
53868;BME280;41577;47.470;19.080;2023-12-20T00:00:57;100373.22;;;-2.25;100.00
53868;BME280;41577;47.470;19.080;2023-12-20T00:01:08;100380.22;;;-2.25;100.00
53868;BME280;41577;47.470;19.080;2023-12-20T00:01:21;100369.75;;;-2.25;100.00
53868;BME280;41577;47.470;19.080;2023-12-20T00:01:33;100373.31;;;-2.26;100.00
53868;BME280;41577;47.470;19.080;2023-12-20T00:01:46;100380.22;;;-2.25;100.00
53868;BME280;41577;47.470;19.080;2023-12-20T00:01:58;100374.13;;;-2.26;100.00
53868;BME280;41577;47.470;19.080;2023-12-20T00:02:10;100371.53;;;-2.26;100.00
53868;BME280;41577;47.470;19.080;2023-12-20T00:02:22;100379.38;;;-2.26;100.00
53868;BME280;41577;47.470;19.080;2023-12-20T00:02:33;100363.66;;;-2.26;100.00
53868;BME280;41577;47.470;19.080;2023-12-20T00:02:45;100372.47;;;-2.27;100.00
53868;BME280;41577;47.470;19.080;2023-12-20T00:02:57;100373.31;;;-2.26;100.00
53868;BME280;41577;47.470;19.080;2023-12-20T00:03:08;100376.97;;;-2.29;100.00
53868;BME280;41577;47.470;19.080;2023-12-20T00:03:20;100374.34;;;-2.29;100.00
53868;BME280;41577;47.470;19.080;2023-12-20T00:03:32;100369.94;;;-2.28;100.00
53868;BME280;41577;47.470;19.080;2023-12-20T00:03:53;100369.03;;;-2.27;100.00
53868;BME280;41577;47.470;19.080;2023-12-20T00:04:06;100369.84;;;-2.27;100.00
53868;BME280;41577;47.470;19.080;2023-12-20T00:04:17;100372.47;;;-2.27;100.00
53868;BME280;41577;47.470;19.080;2023-12-20T00:04:29;100367.25;;;-2.27;100.00
53868;BME280;41577;47.470;19.080;2023-12-20T00:04:41;100369.94;;;-2.28;100.00
53868;BME280;41577;47.470;19.080;2023-12-20T00:04:53;100369.84;;;-2.27;100.00
53868;BME280;41577;47.470;19.080;2023-12-20T00:05:06;100369.84;;;-2.27;100.00
53868;BME280;41577;47.470;19.080;2023-12-20T00:05:18;100369.94;;;-2.28;100.00
53868;BME280;41577;47.470;19.080;2023-12-20T00:05:30;100364.72;;;-2.28;100.00
53868;BME280;41577;47.470;19.080;2023-12-20T00:05:42;100371.66;;;-2.27;100.00
53868;BME280;41577;47.470;19.080;2023-12-20T00:05:53;100374.25;;;-2.27;100.00
53868;BME280;41577;47.470;19.080;2023-12-20T00:07:54;100365.47;;;-2.26;100.00
53868;BME280;41577;47.470;19.080;2023-12-20T00:08:06;100364.72;;;-2.28;100.00
53868;BME280;41577;47.470;19.080;2023-12-20T00:08:18;100368.72;;;-2.23;100.00
53868;BME280;41577;47.470;19.080;2023-12-20T00:08:30;100362.09;;;-2.28;100.00
53868;BME280;41577;47.470;19.080;2023-12-20T00:08:42;100367.16;;;-2.25;100.00
53868;BME280;41577;47.470;19.080;2023-12-20T00:08:54;100364.53;;;-2.25;100.00
53868;BME280;41577;47.470;19.080;2023-12-20T00:09:07;100362.09;;;-2.28;100.00
53868;BME280;41577;47.470;19.080;2023-12-20T00:09:19;100351.03;;;-2.32;100.00
53868;BME280;41577;47.470;19.080;2023-12-20T00:09:31;100359.31;;;-2.25;100.00
53868;BME280;41577;47.470;19.080;2023-12-20T00:09:43;100362.97;;;-2.28;100.00
53868;BME280;41577;47.470;19.080;2023-12-20T00:09:55;100360.34;;;-2.28;100.00
53868;BME280;41577;47.470;19.080;2023-12-20T00:10:08;100347.69;;;-2.34;100.00
53868;BME280;41577;47.470;19.080;2023-12-20T00:10:20;100360.13;;;-2.25;100.00
53868;BME280;41577;47.470;19.080;2023-12-20T00:10:32;100364.53;;;-2.25;100.00
53868;BME280;41577;47.470;19.080;2023-12-20T00:10:44;100357.00;;;-2.30;100.00
53868;BME280;41577;47.470;19.080;2023-12-20T00:10:57;100364.41;;;-2.24;100.00
53868;BME280;41577;47.470;19.080;2023-12-20T00:11:09;100368.06;;;-2.26;100.00
53868;BME280;41577;47.470;19.080;2023-12-20T00:11:21;100363.78;;;-2.27;100.00
53868;BME280;41577;47.470;19.080;2023-12-20T00:11:33;100359.50;;;-2.28;100.00
53868;BME280;41577;47.470;19.080;2023-12-20T00:11:45;100363.66;;;-2.26;100.00
53868;BME280;41577;47.470;19.080;2023-12-20T00:11:57;100365.38;;;-2.25;100.00
53868;BME280;41577;47.470;19.080;2023-12-20T00:12:09;100369.63;;;-2.24;100.00
53868;BME280;41577;47.470;19.080;2023-12-20T00:12:22;100358.44;;;-2.26;100.00
53868;BME280;41577;47.470;19.080;2023-12-20T00:12:34;100366.28;;;-2.26;100.00
53868;BME280;41577;47.470;19.080;2023-12-20T00:12:47;100355.72;;;-2.24;100.00
53868;BME280;41577;47.470;19.080;2023-12-20T00:12:59;100365.38;;;-2.25;100.00
53868;BME280;41577;47.470;19.080;2023-12-20T00:13:11;100366.09;;;-2.23;100.00
53868;BME280;41577;47.470;19.080;2023-12-20T00:13:24;100365.97;;;-2.21;100.00
53868;BME280;41577;47.470;19.080;2023-12-20T00:13:36;100357.44;;;-2.23;100.00
53868;BME280;41577;47.470;19.080;2023-12-20T00:13:48;100360.97;;;-2.24;100.00
53868;BME280;41577;47.470;19.080;2023-12-20T00:14:02;100361.69;;;-2.22;100.00
53868;BME280;41577;47.470;19.080;2023-12-20T00:14:14;100360.75;;;-2.21;100.00
53868;BME280;41577;47.470;19.080;2023-12-20T00:14:27;100357.19;;;-2.20;100.00
53868;BME280;41577;47.470;19.080;2023-12-20T00:14:39;100362.44;;;-2.20;100.00
53868;BME280;41577;47.470;19.080;2023-12-20T00:14:51;100362.53;;;-2.22;100.00
53868;BME280;41577;47.470;19.080;2023-12-20T00:15:04;100365.78;;;-2.18;100.00
53868;BME280;41577;47.470;19.080;2023-12-20T00:15:16;100364.97;;;-2.19;100.00
53868;BME280;41577;47.470;19.080;2023-12-20T00:15:28;100361.59;;;-2.21;100.00
53868;BME280;41577;47.470;19.080;2023-12-20T00:15:40;100364.22;;;-2.21;100.00
53868;BME280;41577;47.470;19.080;2023-12-20T00:15:53;100365.97;;;-2.21;100.00
53868;BME280;41577;47.470;19.080;2023-12-20T00:16:05;100363.25;;;-2.20;100.00
53868;BME280;41577;47.470;19.080;2023-12-20T00:16:17;100366.84;;;-2.21;100.00
53868;BME280;41577;47.470;19.080;2023-12-20T00:16:29;100365.03;;;-2.20;100.00
53868;BME280;41577;47.470;19.080;2023-12-20T00:16:41;100351.22;;;-2.22;100.00
53868;BME280;41577;47.470;19.080;2023-12-20T00:16:55;100361.47;;;-2.19;100.00
53868;BME280;41577;47.470;19.080;2023-12-20T00:17:07;100365.03;;;-2.20;100.00
53868;BME280;41577;47.470;19.080;2023-12-20T00:17:19;100361.59;;;-2.21;100.00
53868;BME280;41577;47.470;19.080;2023-12-20T00:17:31;100361.59;;;-2.21;100.00
53868;BME280;41577;47.470;19.080;2023-12-20T00:17:43;100364.22;;;-2.21;100.00
53868;BME280;41577;47.470;19.080;2023-12-20T00:17:56;100363.34;;;-2.21;100.00
53868;BME280;41577;47.470;19.080;2023-12-20T00:18:08;100356.47;;;-2.22;100.00
53868;BME280;41577;47.470;19.080;2023-12-20T00:18:20;100353.75;;;-2.21;100.00
53868;BME280;41577;47.470;19.080;2023-12-20T00:18:32;100364.09;;;-2.19;100.00
53868;BME280;41577;47.470;19.080;2023-12-20T00:18:45;100360.75;;;-2.21;100.00
53868;BME280;41577;47.470;19.080;2023-12-20T00:18:57;100364.09;;;-2.19;100.00
53868;BME280;41577;47.470;19.080;2023-12-20T00:19:09;100357.09;;;-2.19;100.00
53868;BME280;41577;47.470;19.080;2023-12-20T00:19:21;100364.97;;;-2.19;100.00
53868;BME280;41577;47.470;19.080;2023-12-20T00:19:35;100356.25;;;-2.19;100.00
53868;BME280;41577;47.470;19.080;2023-12-20T00:19:48;100360.44;;;-2.17;100.00
53868;BME280;41577;47.470;19.080;2023-12-20T00:20:00;100361.38;;;-2.18;100.00
53868;BME280;41577;47.470;19.080;2023-12-20T00:20:12;100368.28;;;-2.17;100.00
53868;BME280;41577;47.470;19.080;2023-12-20T00:20:25;100362.03;;;-2.14;100.00
53868;BME280;41577;47.470;19.080;2023-12-20T00:20:37;100358.75;;;-2.18;100.00
53868;BME280;41577;47.470;19.080;2023-12-20T00:20:49;100354.59;;;-2.20;100.00
53868;BME280;41577;47.470;19.080;2023-12-20T00:21:02;100368.28;;;-2.17;100.00
53868;BME280;41577;47.470;19.080;2023-12-20T00:21:14;100364.97;;;-2.19;100.00
53868;BME280;41577;47.470;19.080;2023-12-20T00:21:26;100347.78;;;-2.23;100.00
53868;BME280;41577;47.470;19.080;2023-12-20T00:21:38;100365.78;;;-2.18;100.00
53868;BME280;41577;47.470;19.080;2023-12-20T00:21:50;100355.41;;;-2.20;100.00
53868;BME280;41577;47.470;19.080;2023-12-20T00:22:02;100347.06;;;-2.25;100.00
53868;BME280;41577;47.470;19.080;2023-12-20T00:22:14;100351.88;;;-2.19;100.00
53868;BME280;41577;47.470;19.080;2023-12-20T00:22:27;100352.81;;;-2.20;100.00
53868;BME280;41577;47.470;19.080;2023-12-20T00:22:39;100345.50;;;-2.27;100.00
53868;BME280;41577;47.470;19.080;2023-12-20T00:22:50;100357.94;;;-2.18;100.00
53868;BME280;41577;47.470;19.080;2023-12-20T00:23:03;100360.56;;;-2.18;100.00
53868;BME280;41577;47.470;19.080;2023-12-20T00:23:15;100360.75;;;-2.21;100.00
53868;BME280;41577;47.470;19.080;2023-12-20T00:23:27;100355.81;;;-2.26;100.00
53868;BME280;41577;47.470;19.080;2023-12-20T00:23:39;100355.72;;;-2.24;100.00
53868;BME280;41577;47.470;19.080;2023-12-20T00:23:51;100355.72;;;-2.24;100.00
53868;BME280;41577;47.470;19.080;2023-12-20T00:24:04;100360.97;;;-2.24;100.00
53868;BME280;41577;47.470;19.080;2023-12-20T00:24:16;100349.03;;;-2.28;100.00
53868;BME280;41577;47.470;19.080;2023-12-20T00:24:29;100350.41;;;-2.23;100.00
53868;BME280;41577;47.470;19.080;2023-12-20T00:24:41;100350.50;;;-2.24;100.00
53868;BME280;41577;47.470;19.080;2023-12-20T00:24:53;100360.03;;;-2.23;100.00
53868;BME280;41577;47.470;19.080;2023-12-20T00:25:06;100340.25;;;-2.27;100.00
53868;BME280;41577;47.470;19.080;2023-12-20T00:25:18;100354.06;;;-2.25;100.00
53868;BME280;41577;47.470;19.080;2023-12-20T00:25:31;100340.88;;;-2.24;100.00
53868;BME280;41577;47.470;19.080;2023-12-20T00:25:43;100335.84;;;-2.27;100.00
53868;BME280;41577;47.470;19.080;2023-12-20T00:25:55;100342.75;;;-2.26;100.00
53868;BME280;41577;47.470;19.080;2023-12-20T00:26:07;100341.81;;;-2.25;100.00
53868;BME280;41577;47.470;19.080;2023-12-20T00:26:19;100346.97;;;-2.23;100.00
53868;BME280;41577;47.470;19.080;2023-12-20T00:26:32;100346.97;;;-2.23;100.00
53868;BME280;41577;47.470;19.080;2023-12-20T00:26:44;100345.03;;;-2.21;100.00
53868;BME280;41577;47.470;19.080;2023-12-20T00:26:56;100341.72;;;-2.23;100.00
53868;BME280;41577;47.470;19.080;2023-12-20T00:27:08;100343.38;;;-2.22;100.00
53868;BME280;41577;47.470;19.080;2023-12-20T00:27:20;100339.94;;;-2.23;100.00
53868;BME280;41577;47.470;19.080;2023-12-20T00:27:32;100346.84;;;-2.22;100.00
53868;BME280;41577;47.470;19.080;2023-12-20T00:27:44;100336.50;;;-2.23;100.00
53868;BME280;41577;47.470;19.080;2023-12-20T00:27:57;100346.09;;;-2.24;100.00
53868;BME280;41577;47.470;19.080;2023-12-20T00:28:09;100340.88;;;-2.24;100.00
53868;BME280;41577;47.470;19.080;2023-12-20T00:28:24;100344.53;;;-2.26;100.00
53868;BME280;41577;47.470;19.080;2023-12-20T00:28:36;100341.72;;;-2.23;100.00
53868;BME280;41577;47.470;19.080;2023-12-20T00:28:48;100344.22;;;-2.22;100.00
53868;BME280;41577;47.470;19.080;2023-12-20T00:29:00;100346.97;;;-2.23;100.00
53868;BME280;41577;47.470;19.080;2023-12-20T00:29:12;100344.34;;;-2.23;100.00
53868;BME280;41577;47.470;19.080;2023-12-20T00:29:24;100337.50;;;-2.26;100.00
53868;BME280;41577;47.470;19.080;2023-12-20T00:29:37;100341.91;;;-2.26;100.00
53868;BME280;41577;47.470;19.080;2023-12-20T00:29:49;100334.38;;;-2.31;100.00
53868;BME280;41577;47.470;19.080;2023-12-20T00:30:01;100333.34;;;-2.28;100.00
53868;BME280;41577;47.470;19.080;2023-12-20T00:30:13;100333.47;;;-2.30;100.00
53868;BME280;41577;47.470;19.080;2023-12-20T00:30:26;100330.13;;;-2.32;100.00
53868;BME280;41577;47.470;19.080;2023-12-20T00:30:38;100347.97;;;-2.26;100.00
53868;BME280;41577;47.470;19.080;2023-12-20T00:30:50;100334.28;;;-2.29;100.00
53868;BME280;41577;47.470;19.080;2023-12-20T00:31:03;100329.38;;;-2.34;100.00
53868;BME280;41577;47.470;19.080;2023-12-20T00:31:16;100337.66;;;-2.27;100.00
53868;BME280;41577;47.470;19.080;2023-12-20T00:31:28;100330.22;;;-2.34;100.00
53868;BME280;41577;47.470;19.080;2023-12-20T00:31:40;100338.47;;;-2.27;100.00
53868;BME280;41577;47.470;19.080;2023-12-20T00:31:54;100331.78;;;-2.31;100.00
53868;BME280;41577;47.470;19.080;2023-12-20T00:32:07;100336.81;;;-2.28;100.00
53868;BME280;41577;47.470;19.080;2023-12-20T00:32:19;100330.72;;;-2.28;100.00
53868;BME280;41577;47.470;19.080;2023-12-20T00:32:31;100339.63;;;-2.31;100.00
53868;BME280;41577;47.470;19.080;2023-12-20T00:32:53;100332.41;;;-2.27;100.00
53868;BME280;41577;47.470;19.080;2023-12-20T00:33:05;100335.84;;;-2.27;100.00
53868;BME280;41577;47.470;19.080;2023-12-20T00:33:18;100324.88;;;-2.32;100.00
53868;BME280;41577;47.470;19.080;2023-12-20T00:33:30;100328.00;;;-2.27;100.00
53868;BME280;41577;47.470;19.080;2023-12-20T00:33:43;100332.72;;;-2.32;100.00
53868;BME280;41577;47.470;19.080;2023-12-20T00:33:55;100333.34;;;-2.28;100.00
53868;BME280;41577;47.470;19.080;2023-12-20T00:34:08;100341.00;;;-2.25;100.00
53868;BME280;41577;47.470;19.080;2023-12-20T00:34:20;100334.19;;;-2.28;100.00
53868;BME280;41577;47.470;19.080;2023-12-20T00:34:33;100333.34;;;-2.28;100.00
53868;BME280;41577;47.470;19.080;2023-12-20T00:34:45;100330.84;;;-2.30;100.00
53868;BME280;41577;47.470;19.080;2023-12-20T00:34:57;100336.69;;;-2.26;100.00
53868;BME280;41577;47.470;19.080;2023-12-20T00:35:09;100333.25;;;-2.27;100.00
53868;BME280;41577;47.470;19.080;2023-12-20T00:35:21;100336.06;;;-2.30;100.00
53868;BME280;41577;47.470;19.080;2023-12-20T00:35:33;100320.78;;;-2.36;100.00
53868;BME280;41577;47.470;19.080;2023-12-20T00:35:45;100320.47;;;-2.32;100.00
53868;BME280;41577;47.470;19.080;2023-12-20T00:35:57;100326.66;;;-2.33;100.00
53868;BME280;41577;47.470;19.080;2023-12-20T00:36:09;100331.69;;;-2.29;100.00
53868;BME280;41577;47.470;19.080;2023-12-20T00:36:21;100317.97;;;-2.33;100.00
53868;BME280;41577;47.470;19.080;2023-12-20T00:36:33;100321.44;;;-2.33;100.00
53868;BME280;41577;47.470;19.080;2023-12-20T00:36:46;100325.50;;;-2.28;100.00
53868;BME280;41577;47.470;19.080;2023-12-20T00:36:58;100325.50;;;-2.28;100.00
53868;BME280;41577;47.470;19.080;2023-12-20T00:37:12;100323.00;;;-2.30;100.00
53868;BME280;41577;47.470;19.080;2023-12-20T00:37:24;100316.22;;;-2.33;100.00
53868;BME280;41577;47.470;19.080;2023-12-20T00:37:36;100323.75;;;-2.28;100.00
53868;BME280;41577;47.470;19.080;2023-12-20T00:37:48;100329.78;;;-2.27;100.00
53868;BME280;41577;47.470;19.080;2023-12-20T00:38:00;100323.75;;;-2.28;100.00
53868;BME280;41577;47.470;19.080;2023-12-20T00:38:12;100318.59;;;-2.29;100.00
53868;BME280;41577;47.470;19.080;2023-12-20T00:38:24;100325.50;;;-2.28;100.00
53868;BME280;41577;47.470;19.080;2023-12-20T00:38:36;100327.28;;;-2.29;100.00
53868;BME280;41577;47.470;19.080;2023-12-20T00:38:49;100312.13;;;-2.37;100.00
53868;BME280;41577;47.470;19.080;2023-12-20T00:39:01;100322.88;;;-2.28;100.00
53868;BME280;41577;47.470;19.080;2023-12-20T00:39:13;100325.50;;;-2.28;100.00
53868;BME280;41577;47.470;19.080;2023-12-20T00:39:25;100318.59;;;-2.29;100.00
53868;BME280;41577;47.470;19.080;2023-12-20T00:39:37;100327.19;;;-2.27;100.00
53868;BME280;41577;47.470;19.080;2023-12-20T00:39:49;100318.59;;;-2.29;100.00
53868;BME280;41577;47.470;19.080;2023-12-20T00:40:02;100318.81;;;-2.33;100.00
53868;BME280;41577;47.470;19.080;2023-12-20T00:40:14;100324.56;;;-2.27;100.00
53868;BME280;41577;47.470;19.080;2023-12-20T00:40:26;100322.88;;;-2.28;100.00
53868;BME280;41577;47.470;19.080;2023-12-20T00:40:38;100321.94;;;-2.27;100.00
53868;BME280;41577;47.470;19.080;2023-12-20T00:40:51;100328.97;;;-2.28;100.00
53868;BME280;41577;47.470;19.080;2023-12-20T00:41:03;100313.59;;;-2.33;100.00
53868;BME280;41577;47.470;19.080;2023-12-20T00:41:15;100313.47;;;-2.31;100.00
53868;BME280;41577;47.470;19.080;2023-12-20T00:41:27;100319.44;;;-2.29;100.00
53868;BME280;41577;47.470;19.080;2023-12-20T00:41:39;100323.84;;;-2.29;100.00
53868;BME280;41577;47.470;19.080;2023-12-20T00:41:52;100322.88;;;-2.28;100.00
53868;BME280;41577;47.470;19.080;2023-12-20T00:42:04;100319.34;;;-2.27;100.00
53868;BME280;41577;47.470;19.080;2023-12-20T00:42:16;100323.50;;;-2.25;100.00
53868;BME280;41577;47.470;19.080;2023-12-20T00:42:28;100315.03;;;-2.28;100.00
53868;BME280;41577;47.470;19.080;2023-12-20T00:42:40;100316.72;;;-2.27;100.00
53868;BME280;41577;47.470;19.080;2023-12-20T00:42:52;100318.28;;;-2.25;100.00
53868;BME280;41577;47.470;19.080;2023-12-20T00:43:05;100315.16;;;-2.30;100.00
53868;BME280;41577;47.470;19.080;2023-12-20T00:43:17;100320.16;;;-2.27;100.00
53868;BME280;41577;47.470;19.080;2023-12-20T00:43:29;100307.41;;;-2.32;100.00
53868;BME280;41577;47.470;19.080;2023-12-20T00:43:41;100318.28;;;-2.25;100.00
53868;BME280;41577;47.470;19.080;2023-12-20T00:43:53;100323.50;;;-2.25;100.00
53868;BME280;41577;47.470;19.080;2023-12-20T00:44:06;100320.91;;;-2.25;100.00
53868;BME280;41577;47.470;19.080;2023-12-20T00:44:18;100319.22;;;-2.26;100.00
53868;BME280;41577;47.470;19.080;2023-12-20T00:44:30;100310.75;;;-2.29;100.00
53868;BME280;41577;47.470;19.080;2023-12-20T00:44:56;100315.66;;;-2.25;100.00
53868;BME280;41577;47.470;19.080;2023-12-20T00:45:09;100314.72;;;-2.24;100.00
53868;BME280;41577;47.470;19.080;2023-12-20T00:45:21;100307.00;;;-2.25;100.00
53868;BME280;41577;47.470;19.080;2023-12-20T00:45:33;100308.22;;;-2.31;100.00
53868;BME280;41577;47.470;19.080;2023-12-20T00:45:45;100309.81;;;-2.28;100.00
53868;BME280;41577;47.470;19.080;2023-12-20T00:45:57;100320.91;;;-2.25;100.00
53868;BME280;41577;47.470;19.080;2023-12-20T00:46:12;100317.47;;;-2.25;100.00
53868;BME280;41577;47.470;19.080;2023-12-20T00:46:24;100308.13;;;-2.29;100.00
53868;BME280;41577;47.470;19.080;2023-12-20T00:46:36;100307.19;;;-2.28;100.00
53868;BME280;41577;47.470;19.080;2023-12-20T00:46:48;100319.00;;;-2.23;100.00
53868;BME280;41577;47.470;19.080;2023-12-20T00:47:02;100307.19;;;-2.28;100.00
53868;BME280;41577;47.470;19.080;2023-12-20T00:47:14;100311.38;;;-2.26;100.00
53868;BME280;41577;47.470;19.080;2023-12-20T00:47:26;100306.34;;;-2.29;100.00
53868;BME280;41577;47.470;19.080;2023-12-20T00:47:38;100314.72;;;-2.24;100.00
53868;BME280;41577;47.470;19.080;2023-12-20T00:47:50;100304.56;;;-2.28;100.00
53868;BME280;41577;47.470;19.080;2023-12-20T00:48:03;100319.94;;;-2.24;100.00
53868;BME280;41577;47.470;19.080;2023-12-20T00:48:15;100315.56;;;-2.23;100.00
53868;BME280;41577;47.470;19.080;2023-12-20T00:48:27;100315.66;;;-2.25;100.00
53868;BME280;41577;47.470;19.080;2023-12-20T00:48:39;100298.81;;;-2.34;100.00
53868;BME280;41577;47.470;19.080;2023-12-20T00:48:51;100311.25;;;-2.24;100.00
53868;BME280;41577;47.470;19.080;2023-12-20T00:49:03;100303.41;;;-2.24;100.00
53868;BME280;41577;47.470;19.080;2023-12-20T00:49:15;100303.66;;;-2.27;100.00
53868;BME280;41577;47.470;19.080;2023-12-20T00:49:27;100307.91;;;-2.26;100.00
53868;BME280;41577;47.470;19.080;2023-12-20T00:49:40;100310.44;;;-2.25;100.00
53868;BME280;41577;47.470;19.080;2023-12-20T00:49:52;100294.41;;;-2.33;100.00
53868;BME280;41577;47.470;19.080;2023-12-20T00:50:05;100314.63;;;-2.22;100.00
53868;BME280;41577;47.470;19.080;2023-12-20T00:50:19;100303.41;;;-2.24;100.00
53868;BME280;41577;47.470;19.080;2023-12-20T00:50:38;100312.09;;;-2.24;100.00
53868;BME280;41577;47.470;19.080;2023-12-20T00:50:51;100293.19;;;-2.27;100.00
53868;BME280;41577;47.470;19.080;2023-12-20T00:51:03;100307.00;;;-2.25;100.00
53868;BME280;41577;47.470;19.080;2023-12-20T00:51:16;100299.25;;;-2.27;100.00
53868;BME280;41577;47.470;19.080;2023-12-20T00:51:28;100306.13;;;-2.26;100.00
53868;BME280;41577;47.470;19.080;2023-12-20T00:51:40;100303.41;;;-2.24;100.00
53868;BME280;41577;47.470;19.080;2023-12-20T00:51:52;100296.53;;;-2.25;100.00
53868;BME280;41577;47.470;19.080;2023-12-20T00:52:04;100307.00;;;-2.25;100.00
53868;BME280;41577;47.470;19.080;2023-12-20T00:52:16;100299.25;;;-2.27;100.00
53868;BME280;41577;47.470;19.080;2023-12-20T00:52:29;100295.06;;;-2.29;100.00
53868;BME280;41577;47.470;19.080;2023-12-20T00:52:41;100307.09;;;-2.27;100.00
53868;BME280;41577;47.470;19.080;2023-12-20T00:52:56;100293.59;;;-2.34;100.00
53868;BME280;41577;47.470;19.080;2023-12-20T00:53:08;100307.72;;;-2.23;100.00
53868;BME280;41577;47.470;19.080;2023-12-20T00:53:20;100296.72;;;-2.28;100.00
53868;BME280;41577;47.470;19.080;2023-12-20T00:53:32;100300.28;;;-2.29;100.00
53868;BME280;41577;47.470;19.080;2023-12-20T00:53:44;100293.38;;;-2.31;100.00
53868;BME280;41577;47.470;19.080;2023-12-20T00:53:56;100302.69;;;-2.26;100.00
53868;BME280;41577;47.470;19.080;2023-12-20T00:54:09;100291.63;;;-2.30;100.00
53868;BME280;41577;47.470;19.080;2023-12-20T00:54:21;100298.41;;;-2.27;100.00
53868;BME280;41577;47.470;19.080;2023-12-20T00:54:33;100300.06;;;-2.26;100.00
53868;BME280;41577;47.470;19.080;2023-12-20T00:54:46;100290.75;;;-2.31;100.00
53868;BME280;41577;47.470;19.080;2023-12-20T00:54:58;100296.72;;;-2.28;100.00
53868;BME280;41577;47.470;19.080;2023-12-20T00:55:10;100290.66;;;-2.29;100.00
53868;BME280;41577;47.470;19.080;2023-12-20T00:55:22;100293.19;;;-2.27;100.00
53868;BME280;41577;47.470;19.080;2023-12-20T00:55:34;100294.09;;;-2.28;100.00
53868;BME280;41577;47.470;19.080;2023-12-20T00:55:46;100297.59;;;-2.28;100.00
53868;BME280;41577;47.470;19.080;2023-12-20T00:55:58;100295.06;;;-2.29;100.00
53868;BME280;41577;47.470;19.080;2023-12-20T00:56:10;100287.22;;;-2.29;100.00
53868;BME280;41577;47.470;19.080;2023-12-20T00:56:23;100293.91;;;-2.25;100.00
53868;BME280;41577;47.470;19.080;2023-12-20T00:56:35;100287.44;;;-2.33;100.00
53868;BME280;41577;47.470;19.080;2023-12-20T00:56:47;100289.94;;;-2.31;100.00
53868;BME280;41577;47.470;19.080;2023-12-20T00:56:59;100300.81;;;-2.24;100.00
53868;BME280;41577;47.470;19.080;2023-12-20T00:57:11;100280.63;;;-2.35;100.00
53868;BME280;41577;47.470;19.080;2023-12-20T00:57:23;100285.75;;;-2.34;100.00
53868;BME280;41577;47.470;19.080;2023-12-20T00:57:35;100293.38;;;-2.31;100.00
53868;BME280;41577;47.470;19.080;2023-12-20T00:57:47;100294.34;;;-2.32;100.00
53868;BME280;41577;47.470;19.080;2023-12-20T00:58:00;100287.63;;;-2.36;100.00
53868;BME280;41577;47.470;19.080;2023-12-20T00:58:12;100278.22;;;-2.38;100.00
53868;BME280;41577;47.470;19.080;2023-12-20T00:58:24;100287.44;;;-2.33;100.00
53868;BME280;41577;47.470;19.080;2023-12-20T00:58:36;100289.41;;;-2.36;100.00
53868;BME280;41577;47.470;19.080;2023-12-20T00:58:48;100289.50;;;-2.38;100.00
53868;BME280;41577;47.470;19.080;2023-12-20T00:59:00;100290.88;;;-2.32;100.00
53868;BME280;41577;47.470;19.080;2023-12-20T00:59:12;100279.91;;;-2.37;100.00
53868;BME280;41577;47.470;19.080;2023-12-20T00:59:25;100285.97;;;-2.37;100.00
53868;BME280;41577;47.470;19.080;2023-12-20T00:59:37;100292.66;;;-2.33;100.00
53868;BME280;41577;47.470;19.080;2023-12-20T00:59:49;100300.38;;;-2.31;100.00
53868;BME280;41577;47.470;19.080;2023-12-20T01:00:01;100296.13;;;-2.32;100.00
53868;BME280;41577;47.470;19.080;2023-12-20T01:00:14;100291.81;;;-2.33;100.00
53868;BME280;41577;47.470;19.080;2023-12-20T01:00:26;100291.72;;;-2.32;100.00
53868;BME280;41577;47.470;19.080;2023-12-20T01:00:38;100283.88;;;-2.32;100.00
53868;BME280;41577;47.470;19.080;2023-12-20T01:00:54;100289.94;;;-2.31;100.00
53868;BME280;41577;47.470;19.080;2023-12-20T01:01:06;100290.75;;;-2.31;100.00
53868;BME280;41577;47.470;19.080;2023-12-20T01:01:18;100294.22;;;-2.30;100.00
53868;BME280;41577;47.470;19.080;2023-12-20T01:01:30;100294.09;;;-2.28;100.00
53868;BME280;41577;47.470;19.080;2023-12-20T01:01:42;100295.16;;;-2.31;100.00
53868;BME280;41577;47.470;19.080;2023-12-20T01:01:54;100294.09;;;-2.28;100.00
53868;BME280;41577;47.470;19.080;2023-12-20T01:02:08;100287.22;;;-2.29;100.00
53868;BME280;41577;47.470;19.080;2023-12-20T01:02:20;100295.78;;;-2.27;100.00
53868;BME280;41577;47.470;19.080;2023-12-20T01:02:33;100290.66;;;-2.29;100.00
53868;BME280;41577;47.470;19.080;2023-12-20T01:02:45;100292.44;;;-2.29;100.00
53868;BME280;41577;47.470;19.080;2023-12-20T01:02:57;100287.53;;;-2.34;100.00
53868;BME280;41577;47.470;19.080;2023-12-20T01:03:09;100295.06;;;-2.29;100.00
53868;BME280;41577;47.470;19.080;2023-12-20T01:03:21;100285.53;;;-2.31;100.00
53868;BME280;41577;47.470;19.080;2023-12-20T01:03:33;100288.13;;;-2.31;100.00
53868;BME280;41577;47.470;19.080;2023-12-20T01:03:45;100290.75;;;-2.31;100.00
53868;BME280;41577;47.470;19.080;2023-12-20T01:03:57;100302.19;;;-2.32;100.00
53868;BME280;41577;47.470;19.080;2023-12-20T01:04:10;100296.13;;;-2.32;100.00
53868;BME280;41577;47.470;19.080;2023-12-20T01:04:22;100294.34;;;-2.32;100.00
53868;BME280;41577;47.470;19.080;2023-12-20T01:04:34;100290.06;;;-2.33;100.00
53868;BME280;41577;47.470;19.080;2023-12-20T01:04:47;100290.75;;;-2.31;100.00
53868;BME280;41577;47.470;19.080;2023-12-20T01:04:59;100294.34;;;-2.32;100.00